createdAt,value
2023-04-16T00:03:57.640Z,4.37
2023-04-16T00:08:57.496Z,4.43
2023-04-16T00:13:57.501Z,4.31
2023-04-16T00:18:57.507Z,4.43
2023-04-16T00:23:57.474Z,4.5
2023-04-16T00:28:57.486Z,4.5
2023-04-16T00:33:57.474Z,4.43
2023-04-16T00:38:57.474Z,4.43
2023-04-16T00:43:57.452Z,4.31
2023-04-16T00:48:57.459Z,4.37
2023-04-16T00:53:57.517Z,4.31
2023-04-16T00:58:57.447Z,4.31
2023-04-16T01:03:57.523Z,4.25
2023-04-16T01:08:57.452Z,4.43
2023-04-16T01:13:57.448Z,4.31
2023-04-16T01:18:57.464Z,4.25
2023-04-16T01:23:57.452Z,4.25
2023-04-16T01:28:57.467Z,4.25
2023-04-16T01:33:57.445Z,4.25
2023-04-16T01:38:57.437Z,4.31
2023-04-16T01:43:57.432Z,4.18
2023-04-16T01:48:57.423Z,4.18
2023-04-16T01:53:57.424Z,4.25
2023-04-16T01:58:57.412Z,4.25
2023-04-16T02:03:57.518Z,4.18
2023-04-16T02:08:57.402Z,4.18
2023-04-16T02:13:57.402Z,4.18
2023-04-16T02:18:57.405Z,4.18
2023-04-16T02:23:57.386Z,4.18
2023-04-16T02:28:57.391Z,4.18
2023-04-16T02:33:57.399Z,4.12
2023-04-16T02:38:57.389Z,4.06
2023-04-16T02:43:57.366Z,4.12
2023-04-16T02:48:57.409Z,4.12
2023-04-16T02:53:57.387Z,4.12
2023-04-16T02:58:57.374Z,4.18
2023-04-16T03:03:57.377Z,4.25
2023-04-16T03:08:57.364Z,4.12
2023-04-16T03:13:57.361Z,4.25
2023-04-16T03:18:57.374Z,4.12
2023-04-16T03:23:57.357Z,4.12
2023-04-16T03:28:57.357Z,4.31
2023-04-16T03:33:57.368Z,4.18
2023-04-16T03:38:57.344Z,4.12
2023-04-16T03:43:57.363Z,4.12
2023-04-16T03:48:57.330Z,4.06
2023-04-16T03:53:57.339Z,4.12
2023-04-16T03:58:57.335Z,4.18
2023-04-16T04:03:57.388Z,4.06
2023-04-16T04:08:57.340Z,4.06
2023-04-16T04:13:57.320Z,4.06
2023-04-16T04:18:57.309Z,4.06
2023-04-16T04:23:57.315Z,4.12
2023-04-16T04:28:57.317Z,4.18
2023-04-16T04:33:57.282Z,4.12
2023-04-16T04:38:57.295Z,4.25
2023-04-16T04:43:57.308Z,4.31
2023-04-16T04:48:57.292Z,4.43
2023-04-16T04:53:57.297Z,4.43
2023-04-16T04:58:57.305Z,4.43
2023-04-16T05:08:57.254Z,4.37
2023-04-16T05:13:57.263Z,4.5
2023-04-16T05:18:57.275Z,4.5
2023-04-16T05:23:57.270Z,4.87
2023-04-16T05:28:57.267Z,5.31
2023-04-16T05:33:57.279Z,5.68
2023-04-16T05:38:57.285Z,5.62
2023-04-16T05:48:57.247Z,5.93
2023-04-16T05:53:57.237Z,6.18
2023-04-16T05:58:57.223Z,6.81
2023-04-16T06:03:57.301Z,6.56
2023-04-16T06:08:57.232Z,6.37
2023-04-16T06:13:57.225Z,6.75
2023-04-16T06:18:57.210Z,6.5
2023-04-16T06:23:57.233Z,6.81
2023-04-16T06:28:57.209Z,6.5
2023-04-16T06:33:57.201Z,6.18
2023-04-16T06:38:57.206Z,6.87
2023-04-16T06:43:57.193Z,6.81
2023-04-16T06:48:57.187Z,6.5
2023-04-16T06:53:57.189Z,6.18
2023-04-16T06:58:57.173Z,6.75
2023-04-16T07:03:57.310Z,6.75
2023-04-16T07:08:57.179Z,7.06
2023-04-16T07:13:57.201Z,7.31
2023-04-16T07:18:57.154Z,6.93
2023-04-16T07:23:57.150Z,7.18
2023-04-16T07:28:57.188Z,8.18
2023-04-16T07:33:57.148Z,7.43
2023-04-16T07:38:57.144Z,7.75
2023-04-16T07:43:57.145Z,8.12
2023-04-16T07:48:57.137Z,7.68
2023-04-16T07:53:57.139Z,8.37
2023-04-16T07:58:58.322Z,8.56
2023-04-16T08:08:57.114Z,8.81
2023-04-16T08:13:57.103Z,9
2023-04-16T08:18:57.128Z,8.43
2023-04-16T08:23:57.097Z,7.62
2023-04-16T08:28:57.124Z,7.75
2023-04-16T08:33:57.122Z,8.12
2023-04-16T08:38:57.100Z,8.93
2023-04-16T08:43:57.096Z,9
2023-04-16T08:48:57.075Z,9.18
2023-04-16T08:53:57.075Z,9.06
2023-04-16T08:58:57.079Z,9.06
2023-04-16T09:03:57.276Z,8.93
2023-04-16T09:08:57.050Z,8.43
2023-04-16T09:13:57.074Z,8.56
2023-04-16T09:18:57.048Z,8.5
2023-04-16T09:23:57.044Z,8.37
2023-04-16T09:28:57.056Z,8.37
2023-04-16T09:33:57.257Z,8.62
2023-04-16T09:38:57.741Z,8.31
2023-04-16T09:43:57.016Z,8.56
2023-04-16T09:48:57.022Z,9.62
2023-04-16T09:53:57.035Z,9.75
2023-04-16T09:58:57.005Z,9.62
2023-04-16T10:03:57.063Z,9.25
2023-04-16T10:08:57.010Z,9.93
2023-04-16T10:13:57.006Z,9.43
2023-04-16T10:18:57.000Z,9.06
2023-04-16T10:23:56.995Z,8.93
2023-04-16T10:28:56.978Z,8.87
2023-04-16T10:33:56.971Z,8.75
2023-04-16T10:38:56.960Z,8.43
2023-04-16T13:18:57.377Z,8.62
2023-04-16T13:38:56.779Z,10.18
2023-04-16T13:43:56.910Z,10.06
2023-04-16T13:48:56.774Z,10.43
2023-04-16T13:53:56.793Z,10.43
2023-04-16T13:58:56.802Z,10.25
2023-04-16T14:03:56.886Z,9.87
2023-04-16T14:08:56.756Z,10
2023-04-16T14:13:56.737Z,10.5
2023-04-16T14:18:56.746Z,10.12
2023-04-16T14:23:56.766Z,10.25
2023-04-16T14:28:56.738Z,10.12
2023-04-16T14:33:56.707Z,10.12
2023-04-16T14:38:56.745Z,10.25
2023-04-16T14:43:56.697Z,9.93
2023-04-16T14:48:56.707Z,9.81
2023-04-16T14:53:56.699Z,9.81
2023-04-16T14:58:56.678Z,9.87
2023-04-16T15:03:57.096Z,10.06
2023-04-16T15:08:56.718Z,10.56
2023-04-16T15:13:56.672Z,10.93
2023-04-16T15:18:56.668Z,10.81
2023-04-16T15:23:56.671Z,10.81
2023-04-16T15:28:56.665Z,10.56
2023-04-16T15:38:56.658Z,10.56
2023-04-16T15:43:56.641Z,9.43
2023-04-16T15:48:56.687Z,9.93
2023-04-16T15:53:56.668Z,9.43
2023-04-16T15:58:56.639Z,9.5
2023-04-16T16:03:56.810Z,9.18
2023-04-16T16:08:56.610Z,9.06
2023-04-16T16:13:56.640Z,8.81
2023-04-16T16:18:56.625Z,8.62
2023-04-16T16:23:56.605Z,8.56
2023-04-16T16:28:56.602Z,8.75
2023-04-16T16:33:56.590Z,8.62
2023-04-16T16:38:56.586Z,8.56
2023-04-16T16:43:56.591Z,8.68
2023-04-16T16:48:56.583Z,8.25
2023-04-16T16:53:56.593Z,8.06
2023-04-16T16:58:56.570Z,8.18
2023-04-16T17:03:56.646Z,8
2023-04-16T17:08:56.569Z,8.06
2023-04-16T17:13:56.546Z,7.87
2023-04-16T17:18:56.558Z,7.81
2023-04-16T17:23:56.632Z,7.62
2023-04-16T17:28:56.543Z,7.43
2023-04-16T17:33:56.554Z,7.25
2023-04-16T17:38:56.526Z,7.18
2023-04-16T17:43:56.524Z,7
2023-04-16T17:48:56.525Z,6.75
2023-04-16T17:53:56.496Z,6.62
2023-04-16T17:58:56.511Z,6.68
2023-04-16T18:03:56.693Z,6.62
2023-04-16T18:08:56.500Z,6.5
2023-04-16T18:13:56.515Z,6.18
2023-04-16T18:18:56.520Z,5.93
2023-04-16T18:23:56.468Z,5.81
2023-04-16T18:28:56.512Z,5.75
2023-04-16T18:33:58.200Z,5.68
2023-04-16T18:39:01.996Z,5.5
2023-04-16T18:43:56.455Z,5.37
2023-04-16T18:48:56.468Z,5.5
2023-04-16T18:53:56.474Z,5.43
2023-04-16T18:58:56.453Z,5.43
2023-04-16T19:03:56.551Z,5.37
2023-04-16T19:08:56.458Z,5.31
2023-04-16T19:13:56.454Z,5.31
2023-04-16T19:18:56.441Z,5.37
2023-04-16T19:23:56.435Z,5.31
2023-04-16T19:28:56.435Z,5.43
2023-04-16T19:33:56.434Z,5.43
2023-04-16T19:38:56.423Z,5.43
2023-04-16T19:43:56.465Z,5.5
2023-04-16T19:48:56.431Z,5.5
2023-04-16T19:53:56.431Z,5.31
2023-04-16T19:58:56.418Z,5.25
2023-04-16T20:03:56.437Z,5.18
2023-04-16T20:08:56.404Z,5
2023-04-16T20:13:56.394Z,4.93
2023-04-16T20:18:56.395Z,4.93
2023-04-16T20:23:56.387Z,5.06
2023-04-16T20:28:56.378Z,5
2023-04-16T20:33:56.401Z,5.06
2023-04-16T20:38:56.375Z,5.12
2023-04-16T20:43:56.373Z,5.18
2023-04-16T20:48:56.379Z,5.06
2023-04-16T20:53:56.373Z,5.25
2023-04-16T20:58:56.390Z,5
2023-04-16T21:03:56.597Z,5
2023-04-16T21:08:56.367Z,4.68
2023-04-16T21:13:56.361Z,4.5
2023-04-16T21:18:56.371Z,4.43
2023-04-16T21:23:56.360Z,4.43
2023-04-16T21:28:56.373Z,4.43
2023-04-16T21:33:56.360Z,4.37
2023-04-16T21:38:56.353Z,4.37
2023-04-16T21:43:56.364Z,4.43
2023-04-16T21:48:56.336Z,4.43
2023-04-16T21:53:56.324Z,4.37
2023-04-16T21:58:56.346Z,4.12
2023-04-16T22:03:56.381Z,4
2023-04-16T22:08:56.336Z,3.81
2023-04-16T22:13:56.312Z,3.75
2023-04-16T22:18:56.305Z,3.68
2023-04-16T22:23:56.335Z,3.43
2023-04-16T22:28:56.298Z,3.37
2023-04-16T22:33:56.308Z,3.06
2023-04-16T22:38:56.337Z,3.31
2023-04-16T22:43:56.930Z,3.43
2023-04-16T22:48:56.298Z,3.62
2023-04-16T22:53:56.303Z,3.56
2023-04-16T22:58:56.287Z,3.68
2023-04-16T23:03:56.322Z,3.93
2023-04-16T23:08:56.280Z,3.75
2023-04-16T23:13:56.274Z,3.81
2023-04-16T23:18:56.277Z,4.06
2023-04-16T23:23:56.269Z,4.06
2023-04-16T23:28:56.265Z,4.12
2023-04-16T23:33:56.284Z,3.87
2023-04-16T23:38:56.241Z,3.81
2023-04-16T23:43:56.250Z,3.81
2023-04-16T23:48:56.268Z,3.93
2023-04-16T23:53:56.251Z,3.81
2023-04-16T23:58:56.247Z,3.81
